Estación de Casablanca
Ultimos registro cada 15 minutos 94
| N° | Estación | Fecha / Hora | Temperatura | Humedad | Lluvia | Velocidad | Dirección | Radiación | Presion |
| 94 | Casablanca | 07-05-2026 23:15 | 8,6 | 93,8 | 0 | 0 | 180 | 0,6 | 993,7 |
| 93 | Casablanca | 07-05-2026 23:00 | 8,5 | 92,9 | 0 | 0 | 136 | 0,6 | 993,6 |
| 92 | Casablanca | 07-05-2026 22:45 | 9 | 91,6 | 0 | 0 | 136 | 0,6 | 993,9 |
| 91 | Casablanca | 07-05-2026 22:30 | 9,4 | 90,2 | 0 | 0 | 136 | 0,6 | 993,9 |
| 90 | Casablanca | 07-05-2026 22:15 | 9,8 | 88,3 | 0 | 0 | 138 | 0,6 | 994,1 |
| 89 | Casablanca | 07-05-2026 22:00 | 9,9 | 88,2 | 0 | 0 | 173 | 0,6 | 994,1 |
| 88 | Casablanca | 07-05-2026 21:45 | 10,7 | 84,6 | 0 | 0 | 229 | 0,6 | 993,9 |
| 87 | Casablanca | 07-05-2026 21:30 | 10,1 | 87,4 | 0 | 0 | 254 | 0,6 | 993,8 |
| 86 | Casablanca | 07-05-2026 21:15 | 9,9 | 88,1 | 0 | 0 | 248 | 0,6 | 993,9 |
| 85 | Casablanca | 07-05-2026 21:00 | 10,3 | 87,4 | 0 | 0 | 260 | 0,6 | 994,1 |
| 84 | Casablanca | 07-05-2026 20:45 | 10,5 | 86,9 | 0 | 0 | 213 | 0,6 | 994,1 |
| 83 | Casablanca | 07-05-2026 20:30 | 0 | 0 | 0 | 0 | 243 | 0,6 | 994,3 |
| 82 | Casablanca | 07-05-2026 20:15 | 10,2 | 88,9 | 0 | 0 | 250 | 0,6 | 993,6 |
| 81 | Casablanca | 07-05-2026 20:00 | 10,5 | 87,5 | 0 | 0 | 230 | 0,6 | 993,9 |
| 80 | Casablanca | 07-05-2026 19:45 | 11,1 | 84,9 | 0 | 0 | 204 | 0,6 | 994 |
| 79 | Casablanca | 07-05-2026 19:30 | 10,4 | 88,6 | 0 | 0 | 220 | 0,6 | 994,3 |
| 78 | Casablanca | 07-05-2026 19:15 | 10,4 | 88,9 | 0 | 0 | 257 | 0,6 | 994,3 |
| 77 | Casablanca | 07-05-2026 19:00 | 10,3 | 88,3 | 0 | 0 | 278 | 0,6 | 994,2 |
| 76 | Casablanca | 07-05-2026 18:45 | 10,4 | 87,5 | 0 | 0 | 271 | 0,6 | 994,2 |
| 75 | Casablanca | 07-05-2026 18:30 | 10,6 | 85,9 | 0 | 0 | 219 | 0,6 | 994 |
| 74 | Casablanca | 07-05-2026 18:15 | 10,4 | 86,5 | 0 | 0 | 240 | 0,6 | 994,1 |
| 73 | Casablanca | 07-05-2026 18:00 | 10,5 | 85,6 | 0 | 0,5 | 250 | 3,1 | 994,3 |
| 72 | Casablanca | 07-05-2026 17:45 | 11 | 83,4 | 0 | 1 | 257 | 9,4 | 994,4 |
| 71 | Casablanca | 07-05-2026 17:30 | 11,6 | 80,7 | 0 | 1 | 258 | 13,1 | 994,3 |
| 70 | Casablanca | 07-05-2026 17:15 | 12,5 | 76,3 | 0 | 1 | 263 | 20,6 | 994,1 |
| 69 | Casablanca | 07-05-2026 17:00 | 13,3 | 73,4 | 0 | 0,5 | 270 | 18,1 | 994,1 |
| 68 | Casablanca | 07-05-2026 16:45 | 13,7 | 71,2 | 0 | 1 | 261 | 20,6 | 993,9 |
| 67 | Casablanca | 07-05-2026 16:30 | 13,8 | 72,1 | 0 | 1,5 | 264 | 25,6 | 993,9 |
| 66 | Casablanca | 07-05-2026 16:15 | 14,2 | 71,8 | 0 | 1,5 | 274 | 29,4 | 993,7 |
| 65 | Casablanca | 07-05-2026 16:00 | 14,6 | 70,9 | 0 | 1,5 | 272 | 26,9 | 993,8 |
| 64 | Casablanca | 07-05-2026 15:45 | 15,1 | 70,6 | 0 | 1 | 268 | 69,4 | 993,6 |
| 63 | Casablanca | 07-05-2026 15:30 | 15,9 | 68,9 | 0 | 1 | 274 | 35,6 | 993,5 |
| 62 | Casablanca | 07-05-2026 15:15 | 16 | 69,8 | 0 | 1 | 277 | 50,6 | 993,6 |
| 61 | Casablanca | 07-05-2026 15:00 | 16,7 | 68,7 | 0 | 1 | 272 | 56,9 | 993,4 |
| 60 | Casablanca | 07-05-2026 14:45 | 17 | 69,8 | 0 | 1 | 271 | 268,1 | 993,3 |
| 59 | Casablanca | 07-05-2026 14:30 | 17,3 | 68,5 | 0 | 1 | 241 | 490,6 | 993,4 |
| 58 | Casablanca | 07-05-2026 14:15 | 18,5 | 66 | 0 | 0,5 | 218 | 83,1 | 993,3 |
| 57 | Casablanca | 07-05-2026 14:00 | 18 | 65 | 0 | 1 | 212 | 545,6 | 993,6 |
| 56 | Casablanca | 07-05-2026 13:45 | 18,3 | 65,2 | 0 | 0,5 | 216 | 558,1 | 994 |
| 55 | Casablanca | 07-05-2026 13:30 | 17,6 | 68,3 | 0 | 1 | 225 | 568,1 | 994,1 |
| 54 | Casablanca | 07-05-2026 13:15 | 17,3 | 67,6 | 0 | 1 | 213 | 160,6 | 994,2 |
| 53 | Casablanca | 07-05-2026 13:00 | 17,5 | 70,1 | 0 | 1 | 198 | 590,6 | 994,6 |
| 52 | Casablanca | 07-05-2026 12:45 | 16,8 | 67,4 | 0 | 1 | 191 | 610,6 | 994,8 |
| 51 | Casablanca | 07-05-2026 12:30 | 16,8 | 69,8 | 0 | 1 | 199 | 596,9 | 995,1 |
| 50 | Casablanca | 07-05-2026 12:15 | 16,1 | 73,8 | 0 | 0,5 | 206 | 600,6 | 995,1 |
| 49 | Casablanca | 07-05-2026 12:00 | 16,4 | 74,7 | 0 | 0,5 | 208 | 613,1 | 995,1 |
| 48 | Casablanca | 07-05-2026 11:45 | 16,1 | 77,9 | 0 | 0,5 | 147 | 633,1 | 995,2 |
| 47 | Casablanca | 07-05-2026 11:30 | 15,4 | 79,3 | 0 | 0 | 132 | 624,4 | 995,1 |
| 46 | Casablanca | 07-05-2026 11:15 | 14 | 86,4 | 0 | 0 | 142 | 530,6 | 995,4 |
| 45 | Casablanca | 07-05-2026 11:00 | 12,9 | 98,9 | 0 | 0 | 131 | 505,6 | 995,7 |
| 44 | Casablanca | 07-05-2026 10:45 | 10,8 | 100 | 0 | 0 | 84 | 480,6 | 995,7 |
| 43 | Casablanca | 07-05-2026 10:30 | 10,3 | 100 | 0 | 0 | 108 | 464,4 | 995,7 |
| 42 | Casablanca | 07-05-2026 10:15 | 8,6 | 100 | 0 | 0 | 124 | 379,4 | 995,8 |
| 41 | Casablanca | 07-05-2026 10:00 | 8,5 | 100 | 0 | 0 | 124 | 250,6 | 995,7 |
| 40 | Casablanca | 07-05-2026 09:45 | 7,8 | 100 | 0 | 0 | 145 | 185,6 | 995,9 |
| 39 | Casablanca | 07-05-2026 09:30 | 7,7 | 100 | 0 | 0 | 270 | 194,4 | 995,8 |
| 38 | Casablanca | 07-05-2026 09:15 | 6,7 | 100 | 0 | 0 | 270 | 160,6 | 995,8 |
| 37 | Casablanca | 07-05-2026 09:00 | 6,1 | 100 | 0 | 0 | 270 | 130,6 | 995,8 |
| 36 | Casablanca | 07-05-2026 08:45 | 5,9 | 100 | 0 | 0 | 270 | 91,9 | 995,7 |
| 35 | Casablanca | 07-05-2026 08:30 | 5,2 | 100 | 0 | 0 | 270 | 84,4 | 995,4 |
| 34 | Casablanca | 07-05-2026 08:15 | 4,5 | 100 | 0 | 0 | 270 | 50,6 | 995,5 |
| 33 | Casablanca | 07-05-2026 08:00 | 3,8 | 100 | 0 | 0 | 270 | 26,9 | 995,2 |
| 32 | Casablanca | 07-05-2026 07:45 | 2,8 | 100 | 0 | 0 | 270 | 11,9 | 995 |
| 31 | Casablanca | 07-05-2026 07:30 | 2,6 | 100 | 0 | 0 | 270 | 3,1 | 995 |
| 30 | Casablanca | 07-05-2026 07:15 | 3,1 | 100 | 0 | 0 | 270 | 0,6 | 995,1 |
| 29 | Casablanca | 07-05-2026 07:00 | 3,4 | 100 | 0 | 0 | 270 | 0,6 | 995 |
| 28 | Casablanca | 07-05-2026 06:45 | 2,8 | 100 | 0 | 0 | 270 | 0,6 | 994,8 |
| 27 | Casablanca | 07-05-2026 06:30 | 3,3 | 100 | 0 | 0 | 270 | 0,6 | 994,7 |
| 26 | Casablanca | 07-05-2026 06:15 | 3,9 | 100 | 0 | 0 | 270 | 0,6 | 994,6 |
| 25 | Casablanca | 07-05-2026 06:00 | 4,9 | 100 | 0 | 0 | 270 | 0,6 | 994,5 |
| 24 | Casablanca | 07-05-2026 05:45 | 4,8 | 100 | 0 | 0 | 270 | 0,6 | 994,3 |
| 23 | Casablanca | 07-05-2026 05:30 | 5,6 | 100 | 0 | 0 | 270 | 0,6 | 994,2 |
| 22 | Casablanca | 07-05-2026 05:15 | 5,8 | 100 | 0 | 0 | 270 | 0,6 | 994 |
| 21 | Casablanca | 07-05-2026 05:00 | 5,7 | 100 | 0 | 0 | 270 | 0,6 | 993,9 |
| 20 | Casablanca | 07-05-2026 04:45 | 6 | 100 | 0 | 0 | 270 | 0,6 | 993,7 |
| 19 | Casablanca | 07-05-2026 04:30 | 6,1 | 99,8 | 0 | 0 | 270 | 0,6 | 993,9 |
| 18 | Casablanca | 07-05-2026 04:15 | 7,1 | 99,8 | 0,2 | 0 | 270 | 0,6 | 993,9 |
| 17 | Casablanca | 07-05-2026 04:00 | 7,3 | 99,7 | 0 | 0 | 268 | 0,6 | 993,7 |
| 16 | Casablanca | 07-05-2026 03:45 | 7,5 | 99,4 | 0 | 0 | 270 | 0,6 | 994 |
| 15 | Casablanca | 07-05-2026 03:30 | 7,6 | 99,6 | 0 | 0 | 256 | 0,6 | 994 |
| 14 | Casablanca | 07-05-2026 03:15 | 7,4 | 99,7 | 0 | 0 | 230 | 0,6 | 993,8 |
| 13 | Casablanca | 07-05-2026 03:00 | 7,2 | 98,6 | 0 | 0 | 233 | 0,6 | 993,9 |
| 12 | Casablanca | 07-05-2026 02:45 | 8 | 99,3 | 0 | 0 | 236 | 0,6 | 993,9 |
| 11 | Casablanca | 07-05-2026 02:30 | 7,1 | 98,7 | 0 | 0 | 237 | 0,6 | 993,8 |
| 10 | Casablanca | 07-05-2026 02:15 | 7,8 | 98,9 | 0 | 0 | 237 | 0,6 | 993,7 |
| 9 | Casablanca | 07-05-2026 02:00 | 8 | 97,6 | 0 | 0 | 237 | 0,6 | 993,9 |
| 8 | Casablanca | 07-05-2026 01:45 | 8,5 | 96,3 | 0 | 0 | 213 | 0,6 | 993,7 |
| 7 | Casablanca | 07-05-2026 01:30 | 9,2 | 96,6 | 0 | 0 | 215 | 0,6 | 993,3 |
| 6 | Casablanca | 07-05-2026 01:15 | 9,2 | 97,4 | 0 | 0 | 233 | 0,6 | 993,2 |
| 5 | Casablanca | 07-05-2026 01:00 | 8,8 | 97,4 | 0 | 0 | 343 | 0,6 | 993,4 |
| 4 | Casablanca | 07-05-2026 00:45 | 9,2 | 96,1 | 0 | 0 | 312 | 0,6 | 993,3 |
| 3 | Casablanca | 07-05-2026 00:30 | 9,7 | 95,5 | 0 | 0 | 239 | 0,6 | 993,3 |
| 2 | Casablanca | 07-05-2026 00:15 | 9,9 | 95,8 | 0 | 0,5 | 237 | 0,6 | 993,4 |
| 1 | Casablanca | 07-05-2026 00:00 | 9,9 | 96,3 | 0 | 0,5 | 234 | 0,6 | 993,5 |